createdAt,value
2023-04-25T00:01:31.510Z,71.60
2023-04-25T00:03:58.767Z,73.19
2023-04-25T00:06:27.749Z,73.58
2023-04-25T00:08:54.604Z,74.00
2023-04-25T00:11:21.783Z,73.67
2023-04-25T00:13:48.932Z,73.71
2023-04-25T00:16:16.869Z,72.47
2023-04-25T00:18:43.966Z,72.77
2023-04-25T00:21:11.317Z,72.09
2023-04-25T00:23:39.692Z,72.46
2023-04-25T00:26:34.998Z,72.97
2023-04-25T00:29:10.140Z,72.28
2023-04-25T00:31:46.389Z,72.62
2023-04-25T00:34:13.291Z,72.91
2023-04-25T00:36:40.173Z,72.76
2023-04-25T00:39:08.796Z,72.79
2023-04-25T00:41:36.605Z,73.63
2023-04-25T00:44:04.868Z,73.45
2023-04-25T00:46:32.427Z,72.68
2023-04-25T00:48:59.395Z,72.75
2023-04-25T00:51:27.259Z,73.06
2023-04-25T00:53:55.501Z,72.57
2023-04-25T00:56:24.203Z,72.59
2023-04-25T00:58:54.715Z,71.80
2023-04-25T01:01:21.840Z,71.90
2023-04-25T01:03:50.804Z,72.02
2023-04-25T01:06:18.263Z,71.59
2023-04-25T01:08:45.726Z,71.95
2023-04-25T01:11:12.759Z,72.40
2023-04-25T01:13:41.332Z,71.89
2023-04-25T01:16:08.743Z,72.38
2023-04-25T01:18:40.251Z,71.94
2023-04-25T01:21:10.946Z,71.89
2023-04-25T01:23:41.393Z,70.86
2023-04-25T01:26:11.105Z,71.13
2023-04-25T01:28:39.495Z,70.36
2023-04-25T01:31:06.615Z,70.16
2023-04-25T01:33:34.114Z,69.79
2023-04-25T01:36:01.691Z,69.93
2023-04-25T01:38:30.725Z,69.42
2023-04-25T01:40:57.973Z,69.38
2023-04-25T01:43:25.436Z,68.88
2023-04-25T01:45:53.394Z,68.77
2023-04-25T01:48:20.475Z,68.63
2023-04-25T01:50:47.991Z,68.87
2023-04-25T01:53:15.386Z,68.73
2023-04-25T01:56:08.346Z,68.69
2023-04-25T01:58:38.246Z,68.81
2023-04-25T02:01:12.798Z,69.47
2023-04-25T02:03:46.775Z,69.25
2023-04-25T02:06:59.791Z,69.39
2023-04-25T02:09:35.129Z,69.24
2023-04-25T02:12:15.107Z,69.82
2023-04-25T02:15:08.806Z,69.81
2023-04-25T02:17:54.416Z,70.13
2023-04-25T02:20:23.569Z,70.28
2023-04-25T02:22:50.648Z,71.13
2023-04-25T02:25:18.078Z,70.79
2023-04-25T02:27:47.380Z,70.42
2023-04-25T02:30:15.090Z,70.81
2023-04-25T02:32:42.223Z,72.13
2023-04-25T02:35:10.939Z,72.03
2023-04-25T02:37:40.167Z,71.89
2023-04-25T02:40:08.963Z,72.60
2023-04-25T02:42:37.130Z,73.04
2023-04-25T02:45:06.836Z,73.37
2023-04-25T02:47:35.310Z,72.88
2023-04-25T02:50:02.201Z,72.55
2023-04-25T02:52:29.607Z,72.20
2023-04-25T02:55:04.747Z,72.15
2023-04-25T02:57:32.920Z,72.25
2023-04-25T02:59:59.992Z,72.67
2023-04-25T03:02:47.607Z,72.46
2023-04-25T03:05:14.849Z,72.67
2023-04-25T03:07:42.170Z,72.42
2023-04-25T03:11:01.246Z,71.70
2023-04-25T03:13:28.639Z,71.68
2023-04-25T03:16:06.183Z,71.92
2023-04-25T03:18:36.388Z,72.16
2023-04-25T03:21:03.803Z,72.62
2023-04-25T03:23:32.250Z,71.41
2023-04-25T03:25:59.100Z,71.85
2023-04-25T03:28:46.393Z,71.35
2023-04-25T03:31:13.509Z,70.93
2023-04-25T03:33:41.893Z,71.18
2023-04-25T03:36:09.620Z,71.99
2023-04-25T03:38:37.000Z,72.12
2023-04-25T03:41:05.847Z,71.87
2023-04-25T03:43:42.908Z,72.32
2023-04-25T03:46:13.254Z,72.22
2023-04-25T03:48:42.914Z,72.20
2023-04-25T03:51:13.822Z,72.63
2023-04-25T03:53:44.126Z,72.64
2023-04-25T03:56:20.054Z,73.07
2023-04-25T03:58:51.327Z,73.28
2023-04-25T04:01:20.672Z,73.34
2023-04-25T04:03:49.905Z,73.07
2023-04-25T04:06:17.937Z,72.88
2023-04-25T04:08:48.852Z,73.15
2023-04-25T04:11:15.883Z,72.92
2023-04-25T04:13:42.833Z,73.49
2023-04-25T04:16:10.232Z,72.94
2023-04-25T04:18:37.268Z,72.48
2023-04-25T04:21:07.540Z,73.11
2023-04-25T04:23:38.997Z,73.28
2023-04-25T04:26:06.884Z,73.32
2023-04-25T04:28:51.705Z,73.26
2023-04-25T04:31:38.887Z,73.11
2023-04-25T04:34:06.392Z,73.20
2023-04-25T04:36:36.202Z,73.86
2023-04-25T04:39:43.721Z,73.65
2023-04-25T04:42:41.562Z,74.18
2023-04-25T04:45:19.982Z,73.85
2023-04-25T04:47:55.960Z,73.97
2023-04-25T04:50:41.390Z,73.88
2023-04-25T04:53:29.582Z,73.87
2023-04-25T04:56:17.613Z,74.05
2023-04-25T04:58:47.785Z,74.05
2023-04-25T05:01:35.701Z,73.77
2023-04-25T05:04:17.765Z,74.04
2023-04-25T05:07:03.778Z,73.86
2023-04-25T05:09:54.290Z,74.16
2023-04-25T05:12:40.137Z,73.43
2023-04-25T05:15:29.791Z,74.17
2023-04-25T05:18:23.699Z,73.93
2023-04-25T05:21:05.828Z,73.86
2023-04-25T05:23:50.820Z,73.97
2023-04-25T05:26:46.199Z,73.77
2023-04-25T05:29:32.313Z,73.62
2023-04-25T05:32:07.083Z,74.29
2023-04-25T05:34:34.704Z,73.79
2023-04-25T05:37:05.815Z,73.83
2023-04-25T05:39:35.876Z,78.05
2023-04-25T05:42:27.688Z,75.02
2023-04-25T05:45:23.162Z,77.15
2023-04-25T05:48:02.725Z,77.45
2023-04-25T05:50:58.273Z,72.72
2023-04-25T05:53:52.824Z,74.75
2023-04-25T05:56:20.092Z,72.37
2023-04-25T05:58:53.241Z,72.27
2023-04-25T06:01:23.289Z,69.86
2023-04-25T06:03:51.774Z,68.66
2023-04-25T06:06:19.038Z,68.47
2023-04-25T06:08:47.178Z,69.49
2023-04-25T06:11:14.325Z,69.27
2023-04-25T06:13:42.287Z,69.13
2023-04-25T06:16:10.997Z,68.68
2023-04-25T06:18:38.096Z,67.40
2023-04-25T06:21:05.725Z,66.92
2023-04-25T06:23:33.699Z,67.27
2023-04-25T06:26:07.296Z,66.82
2023-04-25T06:28:38.610Z,66.42
2023-04-25T06:31:05.829Z,66.56
2023-04-25T06:33:34.273Z,66.88
2023-04-25T06:36:01.466Z,65.58
2023-04-25T06:38:29.005Z,65.72
2023-04-25T06:40:57.707Z,66.35
2023-04-25T06:43:26.176Z,67.31
2023-04-25T06:46:06.432Z,67.23
2023-04-25T06:48:40.955Z,66.90
2023-04-25T06:51:08.233Z,67.34
2023-04-25T06:53:36.840Z,68.48
2023-04-25T06:56:07.068Z,68.44
2023-04-25T06:58:53.921Z,68.69
2023-04-25T07:01:39.313Z,68.80
2023-04-25T07:04:12.856Z,69.19
2023-04-25T07:06:46.429Z,69.46
2023-04-25T07:09:17.593Z,69.92
2023-04-25T07:11:47.349Z,69.44
2023-04-25T07:14:14.301Z,70.34
2023-04-25T07:16:41.532Z,70.69
2023-04-25T07:19:08.855Z,69.64
2023-04-25T07:21:37.663Z,70.71
2023-04-25T07:24:07.158Z,70.14
2023-04-25T07:26:38.993Z,68.90
2023-04-25T07:29:17.300Z,69.56
2023-04-25T07:31:44.295Z,69.23
2023-04-25T07:34:11.280Z,69.72
2023-04-25T07:36:40.666Z,70.06
2023-04-25T07:39:08.584Z,69.97
2023-04-25T07:41:35.872Z,70.11
2023-04-25T07:44:02.874Z,69.84
2023-04-25T07:46:31.887Z,69.40
2023-04-25T07:48:59.072Z,69.81
2023-04-25T07:51:25.995Z,70.44
2023-04-25T07:53:56.780Z,70.35
2023-04-25T07:56:23.860Z,70.76
2023-04-25T07:58:52.875Z,71.32
2023-04-25T08:01:20.905Z,70.37
2023-04-25T08:03:56.512Z,71.27
2023-04-25T08:06:30.849Z,71.29
2023-04-25T08:09:09.451Z,72.33
2023-04-25T08:11:39.905Z,70.69
2023-04-25T08:14:10.686Z,70.76
2023-04-25T08:16:39.013Z,70.01
2023-04-25T08:19:07.530Z,69.23
2023-04-25T08:21:35.313Z,69.78
2023-04-25T08:24:06.551Z,68.22
2023-04-25T08:26:39.500Z,68.42
2023-04-25T08:29:07.413Z,69.02
2023-04-25T08:31:38.201Z,70.08
2023-04-25T08:34:08.257Z,69.99
2023-04-25T08:36:51.173Z,71.03
2023-04-25T08:39:27.288Z,70.35
2023-04-25T08:42:22.705Z,70.60
2023-04-25T08:44:50.609Z,71.24
2023-04-25T08:47:23.458Z,72.15
2023-04-25T08:49:55.947Z,72.27
2023-04-25T08:52:24.722Z,72.30
2023-04-25T08:54:56.196Z,72.31
2023-04-25T08:57:25.891Z,72.67
2023-04-25T08:59:54.839Z,71.09
2023-04-25T09:02:23.610Z,71.54
2023-04-25T09:04:54.854Z,71.10
2023-04-25T09:07:24.688Z,70.68
2023-04-25T09:09:54.558Z,69.92
2023-04-25T09:12:24.350Z,70.57
2023-04-25T09:15:07.990Z,69.99
2023-04-25T09:17:57.121Z,70.90
2023-04-25T09:20:33.370Z,69.51
2023-04-25T09:23:05.089Z,69.16
2023-04-25T09:25:37.630Z,68.46
2023-04-25T09:28:07.704Z,67.25
2023-04-25T09:30:36.811Z,68.08
2023-04-25T09:33:14.196Z,67.77
2023-04-25T09:35:46.845Z,68.51
2023-04-25T09:38:23.274Z,68.65
2023-04-25T09:41:17.945Z,70.57
2023-04-25T09:43:59.310Z,69.64
2023-04-25T09:46:35.394Z,71.46
2023-04-25T09:49:08.569Z,71.87
2023-04-25T09:51:55.541Z,73.71
2023-04-25T09:54:23.645Z,74.32
2023-04-25T09:56:55.296Z,73.98
2023-04-25T09:59:24.338Z,74.66
2023-04-25T10:01:53.226Z,74.95
2023-04-25T10:04:34.042Z,76.08
2023-04-25T10:07:10.513Z,75.92
2023-04-25T10:09:40.394Z,75.33
2023-04-25T10:12:08.371Z,74.49
2023-04-25T10:14:36.794Z,73.75
2023-04-25T10:17:04.673Z,73.50
2023-04-25T10:19:33.433Z,73.47
2023-04-25T10:22:09.311Z,73.28
2023-04-25T10:24:39.871Z,72.28
2023-04-25T10:27:08.186Z,72.21
2023-04-25T10:29:36.863Z,73.93
2023-04-25T10:32:04.711Z,72.76
2023-04-25T10:34:43.954Z,73.64
2023-04-25T10:37:12.682Z,72.88
2023-04-25T10:39:41.938Z,73.82
2023-04-25T10:42:09.683Z,75.02
2023-04-25T10:44:39.257Z,75.67
2023-04-25T10:47:09.229Z,74.87
2023-04-25T10:49:38.844Z,74.96
2023-04-25T10:52:25.212Z,76.70
2023-04-25T10:54:54.827Z,76.51
2023-04-25T10:57:39.850Z,77.13
2023-04-25T11:00:15.970Z,76.60
2023-04-25T11:02:46.638Z,75.12
2023-04-25T11:05:24.170Z,75.31
2023-04-25T11:10:27.445Z,72.62
2023-04-25T11:12:54.646Z,72.83
2023-04-25T11:15:23.396Z,72.89
2023-04-25T11:17:53.751Z,73.17
2023-04-25T11:20:21.595Z,72.10
2023-04-25T11:22:50.369Z,71.32
2023-04-25T11:25:18.484Z,69.81
2023-04-25T11:27:52.253Z,71.25
2023-04-25T11:30:23.296Z,73.07
2023-04-25T11:32:50.316Z,72.45
2023-04-25T11:35:17.774Z,71.92
2023-04-25T11:37:45.462Z,75.33
2023-04-25T11:40:13.017Z,78.15
2023-04-25T11:42:45.150Z,80.47
2023-04-25T11:45:13.431Z,78.55
2023-04-25T11:47:42.944Z,76.99
2023-04-25T11:50:12.890Z,77.44
2023-04-25T11:52:40.986Z,77.98
2023-04-25T11:55:11.700Z,75.93
2023-04-25T11:57:41.895Z,73.32
2023-04-25T12:00:18.090Z,72.96
2023-04-25T12:02:52.763Z,72.36
2023-04-25T12:05:32.078Z,72.47
2023-04-25T12:08:11.418Z,75.30
2023-04-25T12:10:40.998Z,74.90
2023-04-25T12:13:25.846Z,75.82
2023-04-25T12:15:56.030Z,75.94
2023-04-25T12:18:27.088Z,77.60
2023-04-25T12:20:55.421Z,76.86
2023-04-25T12:23:27.098Z,74.88
2023-04-25T12:25:54.401Z,75.64
2023-04-25T12:28:23.926Z,74.82
2023-04-25T12:30:56.527Z,73.74
2023-04-25T12:33:24.133Z,69.54
2023-04-25T12:35:53.388Z,65.88
2023-04-25T12:38:26.144Z,66.68
2023-04-25T12:40:53.574Z,64.85
2023-04-25T12:43:21.061Z,65.73
2023-04-25T12:45:49.695Z,65.94
2023-04-25T12:48:18.843Z,65.07
2023-04-25T12:50:46.847Z,66.07
2023-04-25T12:53:17.048Z,66.46
2023-04-25T12:55:44.278Z,66.92
2023-04-25T12:58:11.891Z,66.26
2023-04-25T13:00:38.868Z,63.99
2023-04-25T13:03:10.549Z,62.80
2023-04-25T13:05:38.724Z,62.14
2023-04-25T13:08:06.238Z,62.52
2023-04-25T13:10:34.765Z,60.90
2023-04-25T13:13:01.818Z,59.76
2023-04-25T13:15:28.985Z,58.91
2023-04-25T13:17:56.824Z,60.13
2023-04-25T13:20:25.160Z,59.60
2023-04-25T13:22:52.233Z,59.50
2023-04-25T13:25:19.186Z,59.00
2023-04-25T13:27:47.716Z,58.70
2023-04-25T13:31:04.649Z,58.21
2023-04-25T13:33:31.949Z,57.20
2023-04-25T13:35:58.937Z,55.90
2023-04-25T13:38:27.935Z,55.07
2023-04-25T13:40:55.167Z,54.56
2023-04-25T13:43:23.852Z,55.23
2023-04-25T13:45:54.858Z,53.82
2023-04-25T13:48:22.725Z,53.46
2023-04-25T13:50:50.599Z,52.85
2023-04-25T13:53:32.983Z,52.48
2023-04-25T13:56:02.723Z,53.03
2023-04-25T13:58:31.147Z,53.52
2023-04-25T14:00:57.959Z,53.46
2023-04-25T14:03:26.542Z,54.03
2023-04-25T14:05:53.920Z,55.16
2023-04-25T14:08:21.093Z,55.42
2023-04-25T14:10:48.189Z,55.51
2023-04-25T14:13:15.256Z,55.74
2023-04-25T14:15:43.943Z,56.08
2023-04-25T14:18:10.960Z,57.06
2023-04-25T14:20:39.182Z,56.79
2023-04-25T14:23:06.348Z,57.66
2023-04-25T14:25:33.801Z,57.90
2023-04-25T14:28:00.783Z,56.40
2023-04-25T14:30:27.660Z,58.33
2023-04-25T14:32:56.161Z,59.33
2023-04-25T14:35:23.061Z,60.49
2023-04-25T14:37:50.380Z,60.43
2023-04-25T14:40:17.565Z,59.23
2023-04-25T14:42:44.592Z,58.63
2023-04-25T14:45:13.027Z,60.31
2023-04-25T14:47:41.213Z,57.41
2023-04-25T14:50:12.151Z,55.34
2023-04-25T14:52:39.115Z,54.92
2023-04-25T14:55:08.199Z,53.10
2023-04-25T14:57:36.203Z,52.32
2023-04-25T15:00:05.955Z,53.19
2023-04-25T15:02:33.399Z,51.72
2023-04-25T15:05:01.165Z,51.13
2023-04-25T15:07:32.427Z,50.86
2023-04-25T15:09:59.665Z,50.64
2023-04-25T15:12:26.759Z,49.68
2023-04-25T15:14:53.784Z,50.76
2023-04-25T15:17:20.705Z,50.29
2023-04-25T15:19:47.692Z,51.42
2023-04-25T15:22:14.736Z,50.56
2023-04-25T15:24:44.200Z,50.60
2023-04-25T15:27:11.207Z,50.52
2023-04-25T15:29:38.769Z,50.50
2023-04-25T15:32:05.916Z,50.64
2023-04-25T15:34:34.696Z,50.21
2023-04-25T15:37:02.255Z,49.33
2023-04-25T15:39:30.961Z,48.04
2023-04-25T15:41:59.268Z,48.25
2023-04-25T15:44:26.136Z,48.60
2023-04-25T15:46:55.063Z,49.14
2023-04-25T15:49:22.345Z,48.78
2023-04-25T15:51:49.350Z,46.83
2023-04-25T15:54:16.373Z,47.55
2023-04-25T15:56:44.628Z,47.91
2023-04-25T15:59:13.457Z,48.35
2023-04-25T16:01:40.792Z,48.75
2023-04-25T16:04:07.975Z,49.57
2023-04-25T16:06:37.014Z,50.24
2023-04-25T16:09:04.044Z,50.07
2023-04-25T16:11:31.994Z,50.69
2023-04-25T16:13:59.118Z,50.68
2023-04-25T16:16:27.469Z,50.07
2023-04-25T16:18:55.190Z,49.97
2023-04-25T16:21:22.139Z,49.92
2023-04-25T16:23:49.898Z,50.15
2023-04-25T16:26:16.867Z,50.27
2023-04-25T16:28:43.712Z,51.30
2023-04-25T16:31:10.621Z,51.99
2023-04-25T16:33:38.848Z,51.16
2023-04-25T16:36:07.441Z,52.15
2023-04-25T16:38:34.828Z,53.04
2023-04-25T16:41:02.127Z,52.43
2023-04-25T16:43:31.123Z,53.61
2023-04-25T16:45:58.046Z,53.52
2023-04-25T16:48:27.251Z,55.23
2023-04-25T16:50:57.193Z,55.40
2023-04-25T16:56:28.090Z,55.99
2023-04-25T16:58:59.068Z,56.30
2023-04-25T17:01:27.206Z,56.79
2023-04-25T17:03:55.640Z,57.41
2023-04-25T17:06:24.972Z,57.34
2023-04-25T17:08:52.280Z,57.78
2023-04-25T17:11:19.602Z,58.04
2023-04-25T17:13:46.615Z,59.20
2023-04-25T17:16:14.872Z,58.26
2023-04-25T17:18:42.429Z,57.19
2023-04-25T17:21:09.486Z,57.84
2023-04-25T17:23:39.764Z,58.69
2023-04-25T17:26:09.155Z,58.64
2023-04-25T17:28:36.463Z,58.03
2023-04-25T17:31:03.704Z,58.35
2023-04-25T17:33:31.003Z,58.45
2023-04-25T17:35:57.858Z,58.37
2023-04-25T17:38:25.251Z,58.41
2023-04-25T17:40:53.783Z,58.83
2023-04-25T17:43:21.009Z,59.40
2023-04-25T17:45:48.030Z,60.30
2023-04-25T17:48:15.063Z,62.88
2023-04-25T17:50:42.065Z,64.14
2023-04-25T17:53:09.136Z,65.02
2023-04-25T17:55:36.230Z,65.92
2023-04-25T17:58:04.765Z,65.60
2023-04-25T18:00:31.762Z,65.07
2023-04-25T18:03:00.892Z,65.32
2023-04-25T18:05:29.860Z,65.75
2023-04-25T18:07:58.237Z,65.82
2023-04-25T18:10:25.203Z,66.79
2023-04-25T18:12:52.298Z,67.11
2023-04-25T18:15:23.912Z,67.02
2023-04-25T18:17:50.870Z,67.55
2023-04-25T18:20:17.917Z,67.70
2023-04-25T18:22:45.868Z,67.32
2023-04-25T18:25:14.346Z,68.05
2023-04-25T18:27:41.915Z,68.49
2023-04-25T18:30:11.391Z,68.02
2023-04-25T18:32:40.050Z,68.52
2023-04-25T18:35:10.319Z,68.62
2023-04-25T18:37:37.541Z,68.71
2023-04-25T18:40:06.608Z,68.89
2023-04-25T18:42:34.262Z,69.15
2023-04-25T18:45:01.215Z,68.75
2023-04-25T18:47:28.172Z,68.34
2023-04-25T18:54:04.174Z,68.62
2023-04-25T18:56:31.198Z,68.50
2023-04-25T18:58:58.455Z,68.28
2023-04-25T19:01:26.476Z,68.79
2023-04-25T19:03:54.404Z,69.25
2023-04-25T19:06:25.966Z,68.82
2023-04-25T19:08:54.066Z,68.70
2023-04-25T19:11:22.959Z,68.77
2023-04-25T19:13:51.205Z,69.15
2023-04-25T19:16:40.069Z,68.66
2023-04-25T19:19:09.432Z,68.81
2023-04-25T19:21:36.572Z,68.44
2023-04-25T19:24:04.810Z,68.26
2023-04-25T19:26:34.605Z,68.69
2023-04-25T19:29:07.876Z,68.26
2023-04-25T19:31:37.452Z,68.24
2023-04-25T19:34:06.464Z,68.09
2023-04-25T19:36:35.327Z,67.89
2023-04-25T19:39:10.212Z,67.99
2023-04-25T19:41:42.518Z,68.78
2023-04-25T19:44:10.369Z,68.88
2023-04-25T19:46:37.629Z,68.46
2023-04-25T19:49:07.093Z,69.29
2023-04-25T19:51:35.863Z,69.28
2023-04-25T19:54:02.792Z,69.07
2023-04-25T19:56:30.647Z,69.68
2023-04-25T19:58:58.995Z,70.39
2023-04-25T20:01:25.974Z,70.44
2023-04-25T20:03:53.396Z,70.40
2023-04-25T20:06:20.872Z,69.72
2023-04-25T20:08:47.919Z,69.93
2023-04-25T20:11:17.642Z,69.15
2023-04-25T20:13:44.669Z,69.46
2023-04-25T20:16:13.273Z,69.55
2023-04-25T20:18:40.288Z,70.16
2023-04-25T20:21:07.722Z,69.76
2023-04-25T20:23:34.697Z,70.46
2023-04-25T20:26:01.753Z,69.98
2023-04-25T20:28:28.804Z,70.21
2023-04-25T20:30:55.732Z,69.85
2023-04-25T20:33:24.004Z,70.10
2023-04-25T20:35:52.508Z,69.75
2023-04-25T20:38:19.405Z,69.34
2023-04-25T20:40:46.428Z,69.74
2023-04-25T20:43:13.424Z,69.41
2023-04-25T20:45:40.399Z,69.58
2023-04-25T20:48:07.903Z,70.15
2023-04-25T20:50:36.276Z,69.84
2023-04-25T20:53:03.409Z,69.76
2023-04-25T20:55:30.221Z,69.80
2023-04-25T20:57:58.166Z,69.21
2023-04-25T21:00:25.294Z,69.41
2023-04-25T21:02:52.532Z,69.11
2023-04-25T21:05:20.221Z,69.58
2023-04-25T21:07:48.613Z,69.37
2023-04-25T21:10:16.588Z,70.00
2023-04-25T21:12:44.149Z,70.15
2023-04-25T21:15:12.650Z,70.17
2023-04-25T21:17:40.247Z,70.65
2023-04-25T21:20:09.308Z,70.72
2023-04-25T21:22:36.623Z,70.28
2023-04-25T21:25:06.047Z,70.61
2023-04-25T21:27:33.654Z,70.37
2023-04-25T21:30:00.589Z,70.39
2023-04-25T21:32:27.594Z,69.93
2023-04-25T21:34:54.785Z,70.47
2023-04-25T21:37:21.650Z,69.96
2023-04-25T21:39:48.506Z,70.34
2023-04-25T21:42:16.895Z,70.34
2023-04-25T21:44:43.855Z,70.44
2023-04-25T21:47:10.862Z,70.65
2023-04-25T21:49:37.955Z,70.02
2023-04-25T21:52:05.633Z,69.63
2023-04-25T21:54:32.541Z,69.64
2023-04-25T21:56:59.378Z,69.20
2023-04-25T21:59:27.737Z,69.43
2023-04-25T22:01:55.603Z,68.93
2023-04-25T22:04:22.721Z,69.43
2023-04-25T22:06:50.214Z,69.26
2023-04-25T22:09:17.161Z,69.47
2023-04-25T22:11:44.091Z,68.85
2023-04-25T22:14:13.291Z,68.94
2023-04-25T22:16:41.730Z,68.79
2023-04-25T22:19:08.745Z,69.03
2023-04-25T22:21:36.154Z,68.32
2023-04-25T22:24:03.240Z,69.21
2023-04-25T22:26:30.254Z,70.18
2023-04-25T22:28:57.377Z,70.20
2023-04-25T22:31:24.612Z,70.11
2023-04-25T22:33:52.941Z,70.60
2023-04-25T22:36:19.883Z,71.22
2023-04-25T22:38:47.450Z,71.21
2023-04-25T22:41:14.488Z,71.18
2023-04-25T22:43:41.589Z,72.22
2023-04-25T22:46:15.778Z,71.71
2023-04-25T22:48:42.804Z,71.25
2023-04-25T22:51:11.742Z,71.50
2023-04-25T22:53:41.416Z,71.39
2023-04-25T22:56:09.505Z,71.31
2023-04-25T22:58:36.744Z,71.09
2023-04-25T23:01:05.275Z,71.30
2023-04-25T23:03:32.683Z,71.17
2023-04-25T23:06:00.665Z,71.17
2023-04-25T23:08:29.250Z,71.05
2023-04-25T23:10:56.113Z,71.73
2023-04-25T23:13:23.097Z,71.73
2023-04-25T23:15:50.106Z,71.75
2023-04-25T23:18:17.238Z,71.67
2023-04-25T23:20:44.457Z,71.96
2023-04-25T23:23:11.489Z,71.68
2023-04-25T23:25:39.795Z,71.53
2023-04-25T23:28:07.164Z,71.85
2023-04-25T23:30:34.112Z,72.02
2023-04-25T23:33:01.214Z,72.22
2023-04-25T23:35:28.622Z,72.61
2023-04-25T23:37:55.676Z,72.93
2023-04-25T23:40:23.274Z,72.97
2023-04-25T23:42:51.496Z,73.39
2023-04-25T23:45:18.555Z,73.77
2023-04-25T23:47:45.520Z,73.76
2023-04-25T23:50:12.852Z,73.90
2023-04-25T23:52:39.724Z,74.35
2023-04-25T23:55:07.492Z,74.28
2023-04-25T23:57:34.363Z,73.67
